createdAt,value
2022-09-05T00:02:29.748Z,97.80
2022-09-05T00:05:48.354Z,98.00
2022-09-05T00:08:59.304Z,98.00
2022-09-05T00:11:58.981Z,98.20
2022-09-05T00:15:17.686Z,98.10
2022-09-05T00:22:52.675Z,98.30
2022-09-05T00:24:26.078Z,98.30
2022-09-05T00:25:31.243Z,98.40
2022-09-05T00:28:37.334Z,98.70
2022-09-05T00:31:54.635Z,98.90
2022-09-05T00:35:26.141Z,98.80
2022-09-05T00:38:22.239Z,98.90
2022-09-05T00:41:13.733Z,99.10
2022-09-05T00:44:01.402Z,99.40
2022-09-05T00:47:07.091Z,99.20
2022-09-05T00:50:00.092Z,99.30
2022-09-05T00:53:07.426Z,99.30
2022-09-05T00:56:41.684Z,99.40
2022-09-05T01:00:08.348Z,99.90
2022-09-05T01:03:31.379Z,99.90
2022-09-05T01:06:37.301Z,99.90
2022-09-05T01:09:28.630Z,99.90
2022-09-05T01:12:32.574Z,99.90
2022-09-05T01:15:33.031Z,99.90
2022-09-05T01:18:47.201Z,99.90
2022-09-05T01:21:53.128Z,99.90
2022-09-05T01:24:54.090Z,99.90
2022-09-05T01:29:13.489Z,99.90
2022-09-05T01:31:41.443Z,99.90
2022-09-05T01:34:48.462Z,99.90
2022-09-05T01:37:49.403Z,99.90
2022-09-05T01:41:17.820Z,99.90
2022-09-05T01:44:23.539Z,99.90
2022-09-05T01:47:29.382Z,99.90
2022-09-05T01:50:25.919Z,99.90
2022-09-05T01:53:26.016Z,99.90
2022-09-05T01:56:32.192Z,99.90
2022-09-05T01:59:37.952Z,99.90
2022-09-05T02:03:04.243Z,99.90
2022-09-05T02:06:20.077Z,99.90
2022-09-05T02:09:28.863Z,99.90
2022-09-05T02:12:27.301Z,99.90
2022-09-05T02:15:25.351Z,99.90
2022-09-05T02:18:52.507Z,99.90
2022-09-05T02:21:57.602Z,99.90
2022-09-05T02:24:47.911Z,99.90
2022-09-05T02:28:06.233Z,99.90
2022-09-05T02:31:20.036Z,99.90
2022-09-05T02:34:42.435Z,99.90
2022-09-05T02:43:39.675Z,99.90
2022-09-05T02:45:12.796Z,99.90
2022-09-05T02:45:21.086Z,99.90
2022-09-05T02:48:06.957Z,99.90
2022-09-05T02:57:28.020Z,99.90
2022-09-05T02:57:41.588Z,99.90
2022-09-05T02:58:09.297Z,99.90
2022-09-05T03:01:09.267Z,99.90
2022-09-05T03:03:54.637Z,99.90
2022-09-05T03:06:46.158Z,99.90
2022-09-05T03:09:52.018Z,99.90
2022-09-05T03:12:43.566Z,99.90
2022-09-05T03:16:02.584Z,99.90
2022-09-05T03:19:46.702Z,99.90
2022-09-05T03:23:09.680Z,99.90
2022-09-05T03:26:26.727Z,99.90
2022-09-05T03:29:12.505Z,99.90
2022-09-05T03:32:12.909Z,99.90
2022-09-05T03:35:49.207Z,99.90
2022-09-05T03:38:59.426Z,99.90
2022-09-05T03:42:00.144Z,99.90
2022-09-05T03:45:04.757Z,99.90
2022-09-05T03:48:27.871Z,99.90
2022-09-05T03:57:08.083Z,99.90
2022-09-05T03:57:14.835Z,99.90
2022-09-05T03:58:57.228Z,99.90
2022-09-05T04:04:37.981Z,99.90
2022-09-05T04:08:09.580Z,99.90
2022-09-05T04:08:37.016Z,99.90
2022-09-05T04:11:40.607Z,99.90
2022-09-05T04:14:32.244Z,99.90
2022-09-05T04:17:47.036Z,99.90
2022-09-05T04:20:44.026Z,99.90
2022-09-05T04:23:42.264Z,99.90
2022-09-05T04:26:49.132Z,99.90
2022-09-05T04:30:39.902Z,99.90
2022-09-05T04:33:36.651Z,99.90
2022-09-05T04:36:33.511Z,99.90
2022-09-05T04:39:19.512Z,99.90
2022-09-05T04:42:04.864Z,99.90
2022-09-05T04:45:12.576Z,99.90
2022-09-05T04:48:05.436Z,99.90
2022-09-05T04:51:23.943Z,99.90
2022-09-05T04:54:40.152Z,99.90
2022-09-05T04:57:35.120Z,99.90
2022-09-05T05:06:05.740Z,99.90
2022-09-05T05:06:17.541Z,99.90
2022-09-05T05:07:10.129Z,99.90
2022-09-05T05:10:41.816Z,99.90
2022-09-05T05:18:00.363Z,99.90
2022-09-05T05:18:06.877Z,99.90
2022-09-05T05:19:53.478Z,99.90
2022-09-05T05:23:20.114Z,99.90
2022-09-05T05:26:12.778Z,99.90
2022-09-05T05:29:25.777Z,99.90
2022-09-05T05:32:45.804Z,99.90
2022-09-05T05:35:39.825Z,99.90
2022-09-05T05:38:53.550Z,99.90
2022-09-05T05:41:39.204Z,99.90
2022-09-05T05:44:28.944Z,99.90
2022-09-05T05:47:32.345Z,99.90
2022-09-05T05:50:55.806Z,99.90
2022-09-05T05:54:21.476Z,99.90
2022-09-05T05:57:25.302Z,99.90
2022-09-05T06:00:52.023Z,99.90
2022-09-05T06:04:08.686Z,99.90
2022-09-05T06:07:26.133Z,99.90
2022-09-05T06:14:51.253Z,99.90
2022-09-05T06:15:04.903Z,99.90
2022-09-05T06:16:58.935Z,99.90
2022-09-05T06:22:07.084Z,99.90
2022-09-05T06:24:05.626Z,99.90
2022-09-05T06:27:03.288Z,99.90
2022-09-05T06:30:09.458Z,99.90
2022-09-05T06:33:03.927Z,99.90
2022-09-05T06:35:50.729Z,99.90
2022-09-05T06:38:44.528Z,99.90
2022-09-05T06:42:15.081Z,99.90
2022-09-05T06:45:33.098Z,99.80
2022-09-05T06:48:45.951Z,99.60
2022-09-05T06:51:45.272Z,99.60
2022-09-05T06:54:59.458Z,99.30
2022-09-05T06:58:11.635Z,99.60
2022-09-05T07:00:59.598Z,99.90
2022-09-05T07:04:33.365Z,99.90
2022-09-05T07:07:31.794Z,99.90
2022-09-05T07:10:38.298Z,99.90
2022-09-05T07:13:30.702Z,99.90
2022-09-05T07:16:38.911Z,99.90
2022-09-05T07:19:35.527Z,99.90
2022-09-05T07:22:49.291Z,99.90
2022-09-05T07:25:37.434Z,99.90
2022-09-05T07:28:28.461Z,99.90
2022-09-05T07:31:27.500Z,99.90
2022-09-05T07:34:31.587Z,99.90
2022-09-05T07:37:23.756Z,99.90
2022-09-05T07:40:25.065Z,99.90
2022-09-05T07:43:28.023Z,99.90
2022-09-05T07:46:23.832Z,99.10
2022-09-05T07:49:14.670Z,99.10
2022-09-05T07:56:49.749Z,99.20
2022-09-05T07:56:55.836Z,99.70
2022-09-05T07:58:50.469Z,98.40
2022-09-05T08:01:40.924Z,98.10
2022-09-05T08:04:32.179Z,98.30
2022-09-05T08:07:49.756Z,97.90
2022-09-05T08:11:03.023Z,97.40
2022-09-05T08:13:42.577Z,97.60
2022-09-05T08:16:34.855Z,97.40
2022-09-05T08:19:29.732Z,97.50
2022-09-05T08:22:21.661Z,96.80
2022-09-05T08:25:36.294Z,96.80
2022-09-05T08:28:45.306Z,97.20
2022-09-05T08:32:03.781Z,96.70
2022-09-05T08:35:03.887Z,96.60
2022-09-05T08:37:52.217Z,96.10
2022-09-05T08:40:46.994Z,96.10
2022-09-05T08:46:36.459Z,95.80
2022-09-05T08:47:10.330Z,95.80
2022-09-05T08:49:55.881Z,95.40
2022-09-05T08:53:41.375Z,95.40
2022-09-05T08:56:47.849Z,95.40
2022-09-05T09:00:18.991Z,95.00
2022-09-05T09:02:50.453Z,94.70
2022-09-05T09:06:14.161Z,94.80
2022-09-05T09:09:13.543Z,94.40
2022-09-05T09:12:33.506Z,94.40
2022-09-05T09:15:38.703Z,94.20
2022-09-05T09:18:42.014Z,93.80
2022-09-05T09:21:43.096Z,93.70
2022-09-05T09:25:14.864Z,93.10
2022-09-05T09:28:48.274Z,92.90
2022-09-05T09:31:30.024Z,91.00
2022-09-05T09:34:25.327Z,90.60
2022-09-05T09:37:49.499Z,90.20
2022-09-05T09:41:00.558Z,90.00
2022-09-05T09:44:20.254Z,88.80
2022-09-05T09:47:14.057Z,86.00
2022-09-05T09:50:08.442Z,89.30
2022-09-05T09:53:15.040Z,88.40
2022-09-05T09:56:48.177Z,88.40
2022-09-05T10:00:11.884Z,88.60
2022-09-05T10:06:57.715Z,88.60
2022-09-05T10:10:47.957Z,86.80
2022-09-05T10:10:53.337Z,89.00
2022-09-05T10:13:41.778Z,88.20
2022-09-05T10:16:55.119Z,88.00
2022-09-05T10:20:10.543Z,88.10
2022-09-05T10:23:44.540Z,88.20
2022-09-05T10:27:01.191Z,88.30
2022-09-05T10:30:19.845Z,87.90
2022-09-05T10:35:15.252Z,87.20
2022-09-05T10:37:05.380Z,86.90
2022-09-05T10:39:51.606Z,86.80
2022-09-05T10:42:58.127Z,87.20
2022-09-05T10:45:56.788Z,86.10
2022-09-05T10:48:53.650Z,85.80
2022-09-05T10:51:51.848Z,85.70
2022-09-05T10:55:14.000Z,85.60
2022-09-05T10:58:10.023Z,85.40
2022-09-05T11:02:26.376Z,85.50
2022-09-05T11:05:00.604Z,85.30
2022-09-05T11:08:08.192Z,85.40
2022-09-05T11:11:17.154Z,84.80
2022-09-05T11:14:42.117Z,84.80
2022-09-05T11:17:45.121Z,85.10
2022-09-05T11:20:42.783Z,85.00
2022-09-05T11:23:39.850Z,84.60
2022-09-05T11:26:35.961Z,84.10
2022-09-05T11:29:48.033Z,84.00
2022-09-05T11:38:26.836Z,83.60
2022-09-05T11:39:56.263Z,82.60
2022-09-05T11:40:07.350Z,82.80
2022-09-05T11:42:41.574Z,83.00
2022-09-05T11:45:49.245Z,83.20
2022-09-05T11:49:04.139Z,83.60
2022-09-05T11:51:58.813Z,83.60
2022-09-05T11:54:54.934Z,83.40
2022-09-05T11:57:42.194Z,83.30
2022-09-05T12:00:38.138Z,83.10
2022-09-05T12:07:27.115Z,82.60
2022-09-05T12:10:45.754Z,83.10
2022-09-05T12:14:17.079Z,83.30
2022-09-05T12:17:42.204Z,82.90
2022-09-05T12:21:02.882Z,82.80
2022-09-05T12:25:15.511Z,82.70
2022-09-05T12:27:39.697Z,82.50
2022-09-05T12:30:37.961Z,81.70
2022-09-05T12:36:01.618Z,82.00
2022-09-05T12:40:44.736Z,81.70
2022-09-05T12:41:35.460Z,82.80
2022-09-05T12:41:36.240Z,81.30
2022-09-05T12:44:45.100Z,79.90
2022-09-05T12:47:18.961Z,79.00
2022-09-05T12:50:17.004Z,77.50
2022-09-05T12:53:13.963Z,76.00
2022-09-05T12:57:13.904Z,75.80
2022-09-05T13:02:55.444Z,75.60
2022-09-05T13:03:01.951Z,75.50
2022-09-05T13:06:08.749Z,75.30
2022-09-05T13:09:05.455Z,74.80
2022-09-05T13:14:58.510Z,74.60
2022-09-05T13:15:37.280Z,74.80
2022-09-05T13:18:31.224Z,72.00
2022-09-05T13:21:26.012Z,70.50
2022-09-05T13:24:27.468Z,68.30
2022-09-05T13:27:23.500Z,66.30
2022-09-05T13:31:13.702Z,64.90
2022-09-05T13:38:15.896Z,63.60
2022-09-05T13:38:16.166Z,62.00
2022-09-05T13:40:23.743Z,61.90
2022-09-05T13:43:12.786Z,61.10
2022-09-05T13:46:03.572Z,60.00
2022-09-05T13:52:34.604Z,60.50
2022-09-05T13:55:53.996Z,59.80
2022-09-05T13:58:56.570Z,58.90
2022-09-05T14:02:27.594Z,59.10
2022-09-05T14:05:31.815Z,56.00
2022-09-05T14:08:33.704Z,57.50
2022-09-05T14:11:58.527Z,55.50
2022-09-05T14:18:02.365Z,56.90
2022-09-05T14:21:15.865Z,57.40
2022-09-05T14:24:12.993Z,58.20
2022-09-05T14:27:00.445Z,58.70
2022-09-05T14:29:55.020Z,58.80
2022-09-05T14:37:49.992Z,59.70
2022-09-05T14:37:55.739Z,59.30
2022-09-05T14:39:53.010Z,60.00
2022-09-05T14:42:53.712Z,61.20
2022-09-05T14:46:00.261Z,61.70
2022-09-05T14:49:10.860Z,61.60
2022-09-05T14:51:58.457Z,61.40
2022-09-05T15:02:41.177Z,61.20
2022-09-05T15:02:50.347Z,62.00
2022-09-05T15:04:40.967Z,62.20
2022-09-05T15:07:31.817Z,62.40
2022-09-05T15:12:16.258Z,61.70
2022-09-05T15:13:26.045Z,62.40
2022-09-05T15:16:15.379Z,61.40
2022-09-05T15:19:01.918Z,61.30
2022-09-05T15:21:47.494Z,60.90
2022-09-05T15:24:33.021Z,60.90
2022-09-05T15:27:19.098Z,61.00
2022-09-05T15:30:06.550Z,60.00
2022-09-05T15:33:29.794Z,59.70
2022-09-05T15:36:32.066Z,59.20
2022-09-05T15:39:23.224Z,58.80
2022-09-05T15:42:18.624Z,58.50
2022-09-05T15:45:11.696Z,58.50
2022-09-05T15:48:24.225Z,58.30
2022-09-05T15:51:19.068Z,58.70
2022-09-05T15:54:05.330Z,58.20
2022-09-05T15:56:57.374Z,58.90
2022-09-05T15:59:49.005Z,59.30
2022-09-05T16:02:47.171Z,58.50
2022-09-05T16:10:34.103Z,59.20
2022-09-05T16:10:40.247Z,59.50
2022-09-05T16:12:38.534Z,57.80
2022-09-05T16:19:58.186Z,59.80
2022-09-05T16:23:20.946Z,59.30
2022-09-05T16:23:33.826Z,58.50
2022-09-05T16:25:07.790Z,59.10
2022-09-05T16:28:11.804Z,58.10
2022-09-05T16:31:23.221Z,58.80
2022-09-05T16:34:42.778Z,58.60
2022-09-05T16:37:42.001Z,58.70
2022-09-05T16:40:42.074Z,58.70
2022-09-05T16:43:33.263Z,58.80
2022-09-05T16:46:24.265Z,59.00
2022-09-05T16:49:15.932Z,59.00
2022-09-05T16:52:07.157Z,59.30
2022-09-05T16:55:03.438Z,59.50
2022-09-05T16:58:19.454Z,59.70
2022-09-05T17:01:10.883Z,60.10
2022-09-05T17:04:08.366Z,60.30
2022-09-05T17:07:07.483Z,60.60
2022-09-05T17:09:53.570Z,60.90
2022-09-05T17:12:41.296Z,61.60
2022-09-05T17:15:35.476Z,62.40
2022-09-05T17:18:26.849Z,61.90
2022-09-05T17:21:41.834Z,62.00
2022-09-05T17:29:18.475Z,62.00
2022-09-05T17:29:25.564Z,61.70
2022-09-05T17:31:46.157Z,61.80
2022-09-05T17:33:45.729Z,61.90
2022-09-05T17:36:41.242Z,62.40
2022-09-05T17:40:05.474Z,62.50
2022-09-05T17:43:03.139Z,62.80
2022-09-05T17:46:11.811Z,62.90
2022-09-05T17:49:18.785Z,63.20
2022-09-05T17:52:18.870Z,63.60
2022-09-05T17:55:12.899Z,63.80
2022-09-05T17:58:24.020Z,64.00
2022-09-05T18:01:28.930Z,64.30
2022-09-05T18:04:47.910Z,64.60
2022-09-05T18:07:34.749Z,65.60
2022-09-05T18:10:27.457Z,65.10
2022-09-05T18:16:43.674Z,65.50
2022-09-05T18:20:06.546Z,65.60
2022-09-05T18:23:37.644Z,65.70
2022-09-05T18:26:23.334Z,65.80
2022-09-05T18:29:17.152Z,65.60
2022-09-05T18:32:11.009Z,65.90
2022-09-05T18:35:36.239Z,65.90
2022-09-05T18:38:50.890Z,66.20
2022-09-05T18:41:38.783Z,65.60
2022-09-05T18:44:29.457Z,65.30
2022-09-05T18:47:53.048Z,65.30
2022-09-05T18:50:46.451Z,64.70
2022-09-05T18:53:34.838Z,64.80
2022-09-05T18:57:11.927Z,64.90
2022-09-05T19:00:06.417Z,65.00
2022-09-05T19:03:01.302Z,65.20
2022-09-05T19:05:55.365Z,66.00
2022-09-05T19:09:14.206Z,65.60
2022-09-05T19:12:34.888Z,65.50
2022-09-05T19:15:34.449Z,66.30
2022-09-05T19:18:27.336Z,66.20
2022-09-05T19:21:22.368Z,66.50
2022-09-05T19:24:20.774Z,66.70
2022-09-05T19:28:22.041Z,66.80
2022-09-05T19:36:57.370Z,66.50
2022-09-05T19:37:03.119Z,66.60
2022-09-05T19:37:30.186Z,67.20
2022-09-05T19:47:29.339Z,68.10
2022-09-05T19:47:31.255Z,68.10
2022-09-05T19:47:44.915Z,68.40
2022-09-05T19:49:38.262Z,68.20
2022-09-05T19:52:23.761Z,68.50
2022-09-05T19:55:33.320Z,68.80
2022-09-05T19:58:22.226Z,68.60
2022-09-05T20:01:15.368Z,68.70
2022-09-05T20:04:01.141Z,69.40
2022-09-05T20:06:49.185Z,69.00
2022-09-05T20:09:43.530Z,69.80
2022-09-05T20:12:38.161Z,68.80
2022-09-05T20:15:36.140Z,68.70
2022-09-05T20:18:33.913Z,69.20
2022-09-05T20:21:29.766Z,69.90
2022-09-05T20:24:16.585Z,69.10
2022-09-05T20:27:02.328Z,69.50
2022-09-05T20:30:00.119Z,69.80
2022-09-05T20:32:54.017Z,70.20
2022-09-05T20:40:27.774Z,70.50
2022-09-05T20:43:11.160Z,71.10
2022-09-05T20:43:24.419Z,70.90
2022-09-05T20:45:08.433Z,71.00
2022-09-05T20:52:23.113Z,71.10
2022-09-05T20:54:14.691Z,71.50
2022-09-05T20:54:31.620Z,71.50
2022-09-05T20:57:18.786Z,71.70
2022-09-05T21:00:24.893Z,71.60
2022-09-05T21:03:15.869Z,72.40
2022-09-05T21:06:28.671Z,72.40
2022-09-05T21:09:24.664Z,72.70
2022-09-05T21:12:14.954Z,72.80
2022-09-05T21:15:52.308Z,72.80
2022-09-05T21:18:33.518Z,73.20
2022-09-05T21:21:30.028Z,73.70
2022-09-05T21:24:23.826Z,74.00
2022-09-05T21:27:27.923Z,74.10
2022-09-05T21:30:24.234Z,74.20
2022-09-05T21:33:19.773Z,74.40
2022-09-05T21:36:07.350Z,74.80
2022-09-05T21:38:53.034Z,75.20
2022-09-05T21:41:38.639Z,75.20
2022-09-05T21:47:38.388Z,75.70
2022-09-05T21:47:39.162Z,75.60
2022-09-05T21:50:45.270Z,75.90
2022-09-05T21:53:55.130Z,76.20
2022-09-05T21:59:20.062Z,76.60
2022-09-05T21:59:57.832Z,77.10
2022-09-05T22:02:53.393Z,77.50
2022-09-05T22:05:39.273Z,77.80
2022-09-05T22:08:24.967Z,78.00
2022-09-05T22:11:12.564Z,78.30
2022-09-05T22:14:00.858Z,78.30
2022-09-05T22:16:50.380Z,78.60
2022-09-05T22:19:37.067Z,79.00
2022-09-05T22:22:24.413Z,79.00
2022-09-05T22:25:19.594Z,79.20
2022-09-05T22:28:17.349Z,79.70
2022-09-05T22:31:07.825Z,79.90
2022-09-05T22:33:53.877Z,80.00
2022-09-05T22:36:39.486Z,80.40
2022-09-05T22:39:36.435Z,80.70
2022-09-05T22:42:22.977Z,80.90
2022-09-05T22:45:09.061Z,81.20
2022-09-05T22:47:54.879Z,81.50
2022-09-05T22:50:42.375Z,81.60
2022-09-05T22:53:28.289Z,81.60
2022-09-05T22:56:13.944Z,82.00
2022-09-05T22:58:59.783Z,82.20
2022-09-05T23:01:45.429Z,82.30
2022-09-05T23:04:31.108Z,82.40
2022-09-05T23:07:16.886Z,82.70
2022-09-05T23:10:04.082Z,82.80
2022-09-05T23:12:49.980Z,83.10
2022-09-05T23:15:36.987Z,83.10
2022-09-05T23:18:22.636Z,83.00
2022-09-05T23:21:11.754Z,83.40
2022-09-05T23:23:57.152Z,83.60
2022-09-05T23:26:42.631Z,83.60
2022-09-05T23:29:28.051Z,83.60
2022-09-05T23:32:13.517Z,83.60
2022-09-05T23:34:59.197Z,83.70
2022-09-05T23:37:46.132Z,84.00
2022-09-05T23:40:31.556Z,84.20
2022-09-05T23:43:17.169Z,84.10
2022-09-05T23:46:03.256Z,84.50
2022-09-05T23:48:48.665Z,84.50
2022-09-05T23:51:34.325Z,84.50
2022-09-05T23:54:20.233Z,84.50
2022-09-05T23:57:06.034Z,84.40
2022-09-05T23:59:52.608Z,84.80
